IRONMAN 70.3 Otepää 2018
Skip Navigation Links
Results
Leaderboard
Course Map
16 June 2018
HyperLink
Page 1 of 14 (684 items)
[1]234567...11121314
Pos
Race No
Fav
Name
Time
Category
Cat Pos
Gender
Gen Pos
Club
Country
Swim
T1
Cycle 23km
Cycle 45km
Cycle 67km
Cycle
Run
1665Pirmin Tamm04:14:3130-341Male1 EST 00:25:1400:01:4700:35:3201:08:3301:43:4402:17:51
2419Rinalds Sluckis04:15:2435-391Male2 LAT 00:28:2600:02:0300:34:4601:07:2301:42:5902:16:21
332Harri Sokk04:15:4030-342Male3 EST 00:27:1700:01:3500:34:2701:06:1701:40:0002:12:51
4299Ilya Mazhukhin04:19:2530-343Male4 RUS 00:28:0300:02:0000:36:4101:10:3801:47:02
54Andrii Kuzminskyi04:22:2025-291Male5SBR88UKR 00:28:5000:01:3400:36:0801:47:04
6196Timmo Jeret04:22:2625-292Male6 EST 00:32:0300:02:0500:34:5801:07:3701:42:42
783Evgenii Rulevskii04:23:5725-293Male7SBR88RUS 00:27:4500:01:5300:36:2001:09:5701:45:2302:18:23
8180Priit Ailt04:26:0935-392Male8TriPassion Triatloniklubi (Estonia)EST 00:26:0100:01:2600:36:3601:10:5001:48:50
9137Aivar Juus04:26:3140-441Male921CC TriatloniklubiEST 00:29:0500:02:1000:36:0201:10:0201:46:13
10410Valdur Jaht04:26:3335-393Male10 EST 00:28:3800:01:4900:35:4401:46:47
11156Dirk Zangen04:28:4345-491Male11G-Squad TriathlonEST 00:27:3300:01:4900:36:5401:11:2801:48:40
12684Kristjan Melikov04:29:0440-442Male12 EST 00:27:5000:02:3500:38:0901:13:0001:52:04
13302Raul Ruubel04:30:4030-344Male13 EST 00:27:4000:02:0300:36:5301:10:4801:47:21
14271Matt Rammo04:32:2230-345Male14TriPassion Triatloniklubi (Estonia)EST 00:33:3600:01:3600:37:4001:12:3401:50:47
1581Taavi Kaiv04:33:1925-294Male15TriSmileEST 00:32:4500:02:2700:37:0801:12:0201:49:57
16470Jari Jarvinen04:33:3040-443Male16 FIN 00:28:1200:02:1900:37:1201:12:0901:50:02
17310Jevgenijs Dasko04:34:0030-346Male17Sports Club Ironman.lvLAT 00:33:0900:02:4300:37:0301:12:0901:49:41
1868Rauno Pikkor04:34:0140-444Male18 EST 00:30:2100:02:1000:38:2801:14:1901:53:31
1920Vladimir Nikolaev04:34:1340-445Male19SBR88UKR 00:25:4400:01:3000:37:4101:16:5701:55:13
202Ahti Suppi04:35:2240-446Male20TriSmileEST 00:33:5900:02:0300:36:3701:10:5501:48:33
21537Maksims Zagoruiko04:35:4540-447Male21 LAT 00:29:0500:02:4400:37:4401:13:1201:51:56
2240Artis Davidnieks04:36:1940-448Male22 LAT 00:31:1000:01:4900:37:2001:11:5601:50:29
23648Sergei Lukin04:37:5440-449Male23 RUS 00:31:5300:02:4100:41:2801:18:51
2416Kaspar Loog04:38:4535-394Male2421CC TriatloniklubiEST 00:33:2600:02:0000:37:5901:14:2501:54:34
25592Dzmitry Talkachou04:39:0245-492Male25 BLR 00:28:3700:01:5800:37:4501:12:4501:51:45
2693Taivo Olesk04:39:3230-347Male2621CC TriatloniklubiEST 00:28:3400:02:2300:37:4201:12:4401:51:39
27210Pawel Siatecki04:40:0125-295Male27 POL 00:36:4200:02:4100:37:0201:11:29
28653Sergey Zelenov04:40:0535-395Male28 RUS 00:25:1300:02:0600:38:4501:13:2701:49:52
2956Marek Antoniak04:40:1450-541Male2921CC TriatloniklubiEST 00:32:5600:02:5800:36:0701:09:1701:46:58
30465Mikhail Venediktov04:40:3235-396Male30 RUS 00:35:5600:03:3100:38:0201:14:39
31159Margus Nõmm04:41:1545-493Male3121CC TriatloniklubiEST 00:28:1500:02:1600:36:3401:11:1301:48:33
32663Markus Allen04:42:0140-4410Male32 GBR 00:27:3301:10:2201:46:2402:26:53
3370Vidrik Vaiksaar04:42:1025-296Male33 EST 00:38:4000:02:3500:34:2701:07:2401:43:45
3443Joona Saluveer04:42:2140-4411Male34 EST 00:28:1400:02:5700:38:5501:14:5801:53:57
35670Paul Ruubel04:42:4530-348Male35 EST 00:30:4500:01:4800:38:2801:13:1301:51:11
36105Tanel Taal04:42:5930-349Male3621CC TriatloniklubiEST 00:33:5800:03:2300:38:4301:14:56
3725Uros Kepic04:43:4645-494Male37 SLV 00:31:5900:02:0400:39:2901:16:2001:55:55
38655Harvis Mill04:44:4330-3410Male38 EST 00:33:2200:03:1500:37:2101:51:48
39103Kristjan Silvet04:44:4630-3411Male3921CC TriatloniklubiEST 00:31:1200:02:2100:37:3101:13:1001:51:53
40115Margus Nael04:45:2835-397Male4021CC TriatloniklubiEST 00:29:2400:02:0100:39:3301:15:5801:55:49
4166Maria Jänese04:45:3630-341Female1 EST 00:32:1600:01:5800:40:3201:17:27
42139Andre Pukk04:45:4840-4412Male41TriPassion Triatloniklubi (Estonia)EST 00:32:2700:02:5600:37:5401:13:4301:52:10
43625Rudolf Waechter04:45:5250-542Male42 GER 00:27:5200:02:0700:38:0101:13:4501:53:11
4411Pavel Grigorenko04:46:0535-398Male4321CC TriatloniklubiEST 00:30:2700:01:5700:38:3301:14:2501:53:50
45227Kirill Mazhukhin04:46:2125-297Male44 RUS 00:27:1900:01:5200:37:5201:13:1301:52:30
4646Gints Ermanis04:46:3240-4413Male45Sports Club Ironman.lvLAT 00:37:0000:01:5600:37:2601:11:3001:49:00
47590Henri Rüüsak04:46:4545-495Male46 EST 00:31:5900:02:4300:40:2601:18:14
48446Stefan Zander04:48:0735-399Male47 GER 00:33:0300:02:3300:37:2701:12:0901:50:43
497Andrii Atamanenko04:48:1230-3412Male48CapitalTriUKR 00:30:4800:02:2300:39:0701:15:1601:54:27
50154Artur Praun04:48:3245-496Male49TriSmileEST 00:30:4500:02:1500:39:3301:17:06
Page 1 of 14 (684 items)
[1]234567...11121314

HyperLink Copyright (c) G Vincent, 2018